ADDS METAR Data INFO
IDs: Format: Raw Decoded Include TAF

Data at: 0340 UTC 24 Feb 2017

METAR for:KCRP (Corpus Christi Intl, TX, US)
Text:KCRP 240251Z 14015KT 10SM CLR 21/19 A2963 RMK AO2 SLP033 T02110194 53016 $
Temperature: 21.1°C ( 70°F)
Dewpoint: 19.4°C ( 67°F) [RH = 90%]
Pressure (altimeter):29.63 inches Hg (1003.5 mb) [Sea level pressure: 1003.3 mb]
Winds:from the SE (140 degrees) at 17 MPH (15 knots; 7.7 m/s)
Visibility:10 or more sm (16+ km)
Ceiling:at least 12,000 feet AGL
Clouds:sky clear below 12,000 feet AGL
QC Flag:SOME DATA ABOVE MAY BE INACCURATE!!!"$" is an indication the sensor requires maintenance.


Page loaded:  03:40 UTC  |   07:40 PM Pacific  |   08:40 PM Mountain  |   09:40 PM Central  |   10:40 PM Eastern

 

ADVISORIES

FORECASTS

FORECASTS

OBSERVATIONS

USER TOOLS

ABOUT US